Time;durP1;ratioP1;P1;durP2;ratioP2;P2;SDS_P1;SDS_P2;PMS_P1;PMS_P2;Temp;Humidity;BMP_temperature;BMP_pressure;BME280_temperature;BME280_humidity;BME280_pressure;Samples;Min_cycle;Max_cycle;Signal;HPM_P1;HPM_P2
2022/01/02 00:00:19;;;;;;;4.07;2.78;;;21.10;67.10;;;;;;4993175;28;88138;-87
2022/01/02 00:02:50;;;;;;;3.40;2.17;;;21.10;67.00;;;;;;4992465;28;87797;-85
2022/01/02 00:05:22;;;;;;;4.05;2.67;;;21.10;67.20;;;;;;4991517;28;88486;-82
2022/01/02 00:08:11;;;;;;;3.55;2.60;;;21.10;67.10;;;;;;4992536;28;89028;-82
2022/01/02 00:10:50;;;;;;;3.45;2.35;;;21.10;67.00;;;;;;4992929;28;88664;-82
2022/01/02 00:13:23;;;;;;;4.20;2.40;;;21.10;67.00;;;;;;4994927;28;87759;-82
2022/01/02 00:15:51;;;;;;;2.92;2.40;;;21.10;66.90;;;;;;4986188;28;88300;-83
2022/01/02 00:18:19;;;;;;;5.07;2.80;;;21.10;66.90;;;;;;4994435;28;87646;-85
2022/01/02 00:20:49;;;;;;;3.88;2.60;;;21.10;66.90;;;;;;4996263;28;89085;-83
2022/01/02 00:23:23;;;;;;;3.90;2.78;;;21.10;67.00;;;;;;4996900;28;86973;-82
2022/01/02 00:25:55;;;;;;;2.50;2.30;;;21.10;66.70;;;;;;4996782;28;86465;-82
2022/01/02 00:28:22;;;;;;;2.88;2.35;;;21.10;66.80;;;;;;4998421;28;86992;-82
2022/01/02 00:30:48;;;;;;;3.25;2.40;;;21.10;67.20;;;;;;4997497;28;87938;-82
2022/01/02 00:33:14;;;;;;;3.70;2.40;;;21.10;66.90;;;;;;4997599;28;87928;-82
2022/01/02 00:35:42;;;;;;;3.97;2.38;;;21.10;66.90;;;;;;4997442;28;87243;-81
2022/01/02 00:38:20;;;;;;;2.67;2.10;;;21.00;66.80;;;;;;4997486;28;87883;-87
2022/01/02 00:40:48;;;;;;;3.60;2.53;;;21.10;66.80;;;;;;4997376;28;89608;-81
2022/01/02 00:43:27;;;;;;;2.78;2.30;;;21.10;66.70;;;;;;4999089;28;86985;-82
2022/01/02 00:45:54;;;;;;;3.70;2.40;;;21.10;66.60;;;;;;4998462;28;87432;-82
2022/01/02 00:48:29;;;;;;;3.47;2.50;;;21.00;66.50;;;;;;4997760;28;88702;-83
2022/01/02 00:51:03;;;;;;;3.35;2.60;;;21.10;66.50;;;;;;4984856;28;89033;-82
2022/01/02 00:53:42;;;;;;;2.75;2.22;;;21.10;66.50;;;;;;4997871;28;87024;-82
2022/01/02 00:56:09;;;;;;;3.58;2.63;;;21.00;66.40;;;;;;4997371;28;87627;-83
2022/01/02 00:58:52;;;;;;;3.92;2.58;;;21.00;66.30;;;;;;4996921;28;88874;-82
2022/01/02 01:01:27;;;;;;;2.30;2.10;;;21.00;67.30;;;;;;4994543;28;88712;-83
2022/01/02 01:04:02;;;;;;;4.97;2.40;;;21.00;66.40;;;;;;4996313;28;87741;-84
2022/01/02 01:06:31;;;;;;;3.90;2.50;;;21.00;66.40;;;;;;4996572;28;89182;-82
2022/01/02 01:09:00;;;;;;;;;;;21.00;66.40;;;;;;4995908;28;89935;-82
2022/01/02 01:11:27;;;;;;;4.95;2.53;;;21.00;66.40;;;;;;4995559;28;87210;-83
2022/01/02 01:13:55;;;;;;;3.45;2.50;;;21.00;66.40;;;;;;4995361;28;86905;-84
2022/01/02 01:16:21;;;;;;;4.35;2.25;;;21.00;66.40;;;;;;4997634;28;87616;-82
2022/01/02 01:18:48;;;;;;;3.13;2.30;;;21.00;66.40;;;;;;4996150;28;88931;-83
2022/01/02 01:21:15;;;;;;;3.40;2.22;;;21.00;66.30;;;;;;4995713;28;90466;-81
2022/01/02 01:23:42;;;;;;;2.83;2.30;;;21.00;66.40;;;;;;4996814;28;88485;-82
2022/01/02 01:26:10;;;;;;;3.47;2.20;;;21.00;66.50;;;;;;4969010;28;87943;-83
2022/01/02 01:28:37;;;;;;;3.85;2.60;;;21.00;66.50;;;;;;4996140;28;87627;-82
2022/01/02 01:31:03;;;;;;;3.33;2.20;;;21.00;66.40;;;;;;4998213;28;88790;-83
2022/01/02 01:33:30;;;;;;;3.38;2.30;;;21.00;66.50;;;;;;4998351;28;87390;-82
2022/01/02 01:36:08;;;;;;;3.63;2.60;;;21.00;66.40;;;;;;4997220;28;87000;-83
2022/01/02 01:38:33;;;;;;;2.90;2.25;;;21.00;66.40;;;;;;4998126;28;87637;-83
2022/01/02 01:41:11;;;;;;;2.55;2.00;;;21.00;66.40;;;;;;4998244;28;87348;-82
2022/01/02 01:43:52;;;;;;;4.75;2.58;;;21.00;66.40;;;;;;4997763;28;87333;-81
2022/01/02 01:46:21;;;;;;;3.13;2.33;;;20.90;66.30;;;;;;4998153;28;87428;-83
2022/01/02 01:48:55;;;;;;;3.17;2.10;;;21.00;66.40;;;;;;4995809;28;88770;-82
2022/01/02 01:51:22;;;;;;;3.28;2.28;;;20.90;66.10;;;;;;4987306;28;91577;-84
2022/01/02 01:53:55;;;;;;;3.67;2.35;;;20.90;66.20;;;;;;4995938;28;87553;-84
2022/01/02 01:56:22;;;;;;;3.55;2.63;;;20.90;66.10;;;;;;4997730;28;87852;-82
2022/01/02 01:58:48;;;;;;;3.42;2.38;;;20.90;66.20;;;;;;4997938;28;87733;-82
2022/01/02 02:01:18;;;;;;;3.13;2.33;;;20.90;66.30;;;;;;4997872;28;88493;-82
2022/01/02 02:03:45;;;;;;;2.42;2.00;;;20.90;66.10;;;;;;4996159;28;87577;-83
2022/01/02 02:06:12;;;;;;;3.05;2.25;;;20.90;66.30;;;;;;4995765;28;87177;-82
2022/01/02 02:08:41;;;;;;;3.53;2.60;;;20.90;66.20;;;;;;4993171;28;89120;-82
2022/01/02 02:11:09;;;;;;;2.80;2.10;;;20.90;66.30;;;;;;4995706;28;90409;-82
2022/01/02 02:13:39;;;;;;;3.00;2.30;;;20.90;66.10;;;;;;4996708;28;87992;-82
2022/01/02 02:16:05;;;;;;;;;;;20.90;66.00;;;;;;4998513;28;87021;-82
2022/01/02 02:18:30;;;;;;;3.15;2.30;;;20.90;66.00;;;;;;4994412;28;87268;-82
2022/01/02 02:20:56;;;;;;;2.60;2.40;;;20.90;66.10;;;;;;4994563;28;87705;-82
2022/01/02 02:23:23;;;;;;;2.70;2.00;;;20.90;66.20;;;;;;4993476;28;87086;-82
2022/01/02 02:25:49;;;;;;;2.85;2.30;;;20.90;66.10;;;;;;4994678;28;87173;-82
2022/01/02 02:28:25;;;;;;;2.97;2.08;;;20.90;66.00;;;;;;4994987;28;87787;-85
2022/01/02 02:30:53;;;;;;;2.67;2.10;;;20.90;66.20;;;;;;4994718;28;87228;-82
2022/01/02 02:33:24;;;;;;;3.10;2.38;;;20.90;66.10;;;;;;4996967;28;87343;-83
2022/01/02 02:35:50;;;;;;;2.53;2.03;;;20.90;66.30;;;;;;4995178;28;87521;-82
2022/01/02 02:38:20;;;;;;;2.47;2.17;;;20.90;66.20;;;;;;4995987;28;90261;-85
2022/01/02 02:40:46;;;;;;;3.70;2.20;;;20.90;66.30;;;;;;4995122;28;87586;-81
2022/01/02 02:51:03;;;;;;;3.10;2.30;;;20.80;66.00;;;;;;4994724;28;87869;-82
2022/01/02 02:53:30;;;;;;;2.90;2.28;;;20.90;66.20;;;;;;4994912;28;87091;-83
2022/01/02 02:55:59;;;;;;;3.90;2.58;;;20.80;65.90;;;;;;4996422;28;86948;-82
2022/01/02 03:01:02;;;;;;;3.63;2.40;;;20.80;66.10;;;;;;4995368;28;88577;-81
2022/01/02 03:03:30;;;;;;;2.30;1.95;;;20.80;66.80;;;;;;4996207;28;88710;-84
2022/01/02 03:05:56;;;;;;;2.72;1.90;;;20.80;66.10;;;;;;4993396;28;87382;-83
2022/01/02 03:08:21;;;;;;;2.90;2.28;;;20.80;66.20;;;;;;4992749;28;87556;-82
2022/01/02 03:10:48;;;;;;;2.45;2.25;;;20.80;66.20;;;;;;4997764;28;87927;-82
2022/01/02 03:13:15;;;;;;;2.75;2.22;;;20.80;66.10;;;;;;4997899;28;87449;-82
2022/01/02 03:15:44;;;;;;;2.78;2.00;;;20.80;66.00;;;;;;4995485;28;87436;-82
2022/01/02 03:18:09;;;;;;;2.20;1.88;;;20.80;66.10;;;;;;4996148;28;88073;-82
2022/01/02 03:20:35;;;;;;;3.20;2.40;;;20.80;66.10;;;;;;4975144;28;88164;-81
2022/01/02 03:23:01;;;;;;;3.15;2.40;;;20.80;66.00;;;;;;4995882;28;87401;-82
2022/01/02 03:25:28;;;;;;;2.38;2.17;;;20.80;66.00;;;;;;4995049;28;87819;-82
2022/01/02 03:27:54;;;;;;;2.50;2.30;;;20.80;65.90;;;;;;4996547;28;89158;-81
2022/01/02 03:30:21;;;;;;;2.40;2.13;;;20.80;65.90;;;;;;4996967;28;88508;-82
2022/01/02 03:32:46;;;;;;;3.00;1.95;;;20.80;65.80;;;;;;4996105;28;87449;-81
2022/01/02 03:35:12;;;;;;;3.20;2.35;;;20.80;65.90;;;;;;4996504;28;88011;-81
2022/01/02 03:37:39;;;;;;;2.75;2.03;;;20.80;65.80;;;;;;4995516;28;87886;-83
2022/01/02 03:40:07;;;;;;;2.03;1.83;;;20.80;65.80;;;;;;4993590;28;89013;-80
2022/01/02 03:42:34;;;;;;;2.67;2.10;;;20.80;65.80;;;;;;4969003;28;88192;-82
2022/01/02 03:45:02;;;;;;;2.60;2.00;;;20.80;65.80;;;;;;4994978;28;86839;-81
2022/01/02 03:47:28;;;;;;;3.08;2.20;;;20.80;66.60;;;;;;4962443;28;90243;-81
2022/01/02 03:49:53;;;;;;;2.17;1.98;;;20.80;65.80;;;;;;4994145;28;87939;-81
2022/01/02 03:52:19;;;;;;;2.22;1.88;;;20.80;65.80;;;;;;4996135;28;88449;-82
2022/01/02 03:54:51;;;;;;;2.65;2.10;;;20.80;65.70;;;;;;4999648;28;86846;-81
2022/01/02 03:57:17;;;;;;;3.22;2.13;;;20.80;65.90;;;;;;4997422;28;87932;-82
2022/01/02 03:59:43;;;;;;;2.97;2.10;;;20.80;65.80;;;;;;4995788;28;88392;-79
2022/01/02 04:02:12;;;;;;;3.28;2.13;;;20.80;65.80;;;;;;4978736;28;89506;-82
2022/01/02 04:04:37;;;;;;;2.47;2.00;;;20.70;65.80;;;;;;4999461;28;87126;-82
2022/01/02 04:07:04;;;;;;;2.05;1.85;;;20.70;65.90;;;;;;4996921;28;87694;-83
2022/01/02 04:09:31;;;;;;;2.83;2.25;;;20.70;65.80;;;;;;5001717;28;87604;-82
2022/01/02 04:11:57;;;;;;;2.38;2.03;;;20.70;65.70;;;;;;4997018;28;87802;-82
2022/01/02 04:14:23;;;;;;;2.15;1.95;;;20.70;65.70;;;;;;4997116;28;87217;-87
2022/01/02 04:16:50;;;;;;;3.00;2.00;;;20.70;65.90;;;;;;4997721;28;88499;-89
2022/01/02 04:19:16;;;;;;;3.67;2.08;;;20.70;66.40;;;;;;4982086;28;88489;-86
2022/01/02 04:21:42;;;;;;;2.38;2.13;;;20.70;65.70;;;;;;4965773;28;87671;-81
2022/01/02 04:24:07;;;;;;;2.28;2.03;;;20.70;65.70;;;;;;4996790;28;88821;-82
2022/01/02 04:26:37;;;;;;;2.60;1.92;;;20.70;65.70;;;;;;4990346;28;89498;-83
2022/01/02 04:29:03;;;;;;;2.50;1.95;;;20.70;65.60;;;;;;4998942;28;90162;-81
2022/01/02 04:31:31;;;;;;;1.67;1.58;;;20.70;65.70;;;;;;4980800;28;87476;-81
2022/01/02 04:33:58;;;;;;;2.35;2.10;;;20.70;65.50;;;;;;4982530;28;87587;-85
2022/01/02 04:36:27;;;;;;;3.70;2.00;;;20.70;65.50;;;;;;4997632;28;87907;-81
2022/01/02 04:38:53;;;;;;;2.80;2.15;;;20.70;65.40;;;;;;4997857;28;87257;-81
2022/01/02 04:41:24;;;;;;;2.53;2.08;;;20.70;65.50;;;;;;4969359;28;88282;-82
2022/01/02 04:43:51;;;;;;;2.85;2.20;;;20.70;65.50;;;;;;4996953;28;88395;-81
2022/01/02 04:46:19;;;;;;;2.95;2.38;;;20.70;65.60;;;;;;4997960;28;87988;-82
2022/01/02 04:48:45;;;;;;;2.30;1.95;;;20.70;65.80;;;;;;4998609;28;87612;-84
2022/01/02 04:51:11;;;;;;;2.85;2.17;;;20.70;65.50;;;;;;4997788;28;87841;-82
2022/01/02 04:53:45;;;;;;;2.22;2.00;;;20.70;65.50;;;;;;5001385;28;87255;-81
2022/01/02 04:56:11;;;;;;;2.70;1.63;;;20.70;65.40;;;;;;4998608;28;88020;-84
2022/01/02 04:58:37;;;;;;;2.50;2.05;;;20.70;65.50;;;;;;4998687;28;87325;-82
2022/01/02 05:01:11;;;;;;;2.13;1.92;;;20.70;65.50;;;;;;4995613;28;87057;-82
2022/01/02 05:03:43;;;;;;;2.38;1.75;;;20.70;65.70;;;;;;4999209;28;87457;-80
2022/01/02 05:06:12;;;;;;;2.20;1.90;;;20.60;65.70;;;;;;4998660;28;88957;-86
2022/01/02 05:08:46;;;;;;;2.53;1.80;;;20.60;65.40;;;;;;4998761;28;88191;-83
2022/01/02 05:11:14;;;;;;;2.55;1.90;;;20.60;65.40;;;;;;4999641;28;86983;-82
2022/01/02 05:13:41;;;;;;;2.10;1.90;;;20.60;65.30;;;;;;4998779;28;87566;-83
2022/01/02 05:16:10;;;;;;;2.95;1.90;;;20.60;65.30;;;;;;5000733;28;87794;-87
2022/01/02 05:18:36;;;;;;;;;;;20.60;65.30;;;;;;5003006;28;87473;-81
2022/01/02 05:21:04;;;;;;;2.63;1.85;;;20.60;65.40;;;;;;5018666;28;87015;-90
2022/01/02 05:23:30;;;;;;;2.00;1.80;;;20.60;65.40;;;;;;5018671;28;86373;-87
2022/01/02 05:25:58;;;;;;;2.53;2.10;;;20.60;65.10;;;;;;5017730;28;86920;-86
2022/01/02 05:28:27;;;;;;;3.05;2.13;;;20.60;65.30;;;;;;5018165;28;86766;-88
2022/01/02 05:30:52;;;;;;;2.22;1.98;;;20.60;65.00;;;;;;5016693;28;87949;-83
2022/01/02 05:33:19;;;;;;;1.95;1.70;;;20.60;65.30;;;;;;5016917;28;87049;-82
2022/01/02 05:35:47;;;;;;;2.92;2.00;;;20.60;65.10;;;;;;5015409;28;86700;-81
2022/01/02 05:38:13;;;;;;;2.33;2.00;;;20.60;65.20;;;;;;5015164;28;87390;-84
2022/01/02 05:40:38;;;;;;;2.58;1.88;;;20.60;65.10;;;;;;5015447;28;86920;-86
2022/01/02 05:43:06;;;;;;;2.15;1.95;;;20.60;65.00;;;;;;5016993;28;87021;-82
2022/01/02 05:45:33;;;;;;;2.45;1.70;;;20.60;65.20;;;;;;4999088;28;87859;-81
2022/01/02 05:48:01;;;;;;;2.00;1.80;;;20.60;65.10;;;;;;5015897;28;86492;-88
2022/01/02 05:50:29;;;;;;;2.83;1.98;;;20.60;64.90;;;;;;5014465;28;86973;-83
2022/01/02 05:52:55;;;;;;;3.15;2.00;;;20.60;65.20;;;;;;5014268;28;86877;-82
2022/01/02 05:55:21;;;;;;;2.67;1.95;;;20.60;65.10;;;;;;5015557;28;87921;-82
2022/01/02 05:57:48;;;;;;;2.20;1.92;;;20.60;65.00;;;;;;5015580;28;87352;-85
2022/01/02 06:00:14;;;;;;;2.33;1.90;;;20.60;65.10;;;;;;5014359;28;86871;-88
2022/01/02 06:02:42;;;;;;;2.22;1.80;;;20.50;65.10;;;;;;5014339;28;87581;-81
2022/01/02 06:05:09;;;;;;;2.72;1.80;;;20.50;64.90;;;;;;4996764;28;89076;-91
2022/01/02 06:07:36;;;;;;;1.83;1.60;;;20.60;64.90;;;;;;4996878;28;87835;-88
2022/01/02 06:10:05;;;;;;;2.15;1.95;;;20.50;65.00;;;;;;4996779;28;87723;-82
2022/01/02 06:12:31;;;;;;;2.67;2.00;;;20.60;64.80;;;;;;5013465;28;86389;-82
2022/01/02 06:14:58;;;;;;;1.92;1.63;;;20.50;64.90;;;;;;5012036;28;88554;-87
2022/01/02 06:17:24;;;;;;;1.65;1.55;;;20.50;64.80;;;;;;5011825;28;87314;-83
2022/01/02 06:19:50;;;;;;;2.15;1.77;;;20.50;64.70;;;;;;5011220;28;87581;-82
2022/01/02 06:22:16;;;;;;;2.63;2.13;;;20.50;64.50;;;;;;4993832;28;89443;-88
2022/01/02 06:24:42;;;;;;;2.40;2.00;;;20.50;65.30;;;;;;5008390;28;87426;-88
2022/01/02 06:27:07;;;;;;;2.35;1.67;;;20.50;64.50;;;;;;5005663;28;87598;-82
2022/01/02 06:29:33;;;;;;;2.00;1.77;;;20.50;64.60;;;;;;5007401;28;87766;-82
2022/01/02 06:31:59;;;;;;;2.00;1.65;;;20.50;64.40;;;;;;5006179;28;86920;-85
2022/01/02 06:34:25;;;;;;;2.05;1.77;;;20.50;64.60;;;;;;5006103;28;87653;-88
2022/01/02 06:36:51;;;;;;;2.20;1.60;;;20.50;64.50;;;;;;5006632;28;87358;-89
2022/01/02 06:39:16;;;;;;;2.60;1.92;;;20.50;64.40;;;;;;5006471;28;87724;-86
2022/01/02 06:41:42;;;;;;;1.88;1.67;;;20.50;64.40;;;;;;5006130;28;87452;-84
2022/01/02 06:44:08;;;;;;;2.22;1.63;;;20.50;64.40;;;;;;4995211;28;91884;-83
2022/01/02 06:46:34;;;;;;;2.42;1.88;;;20.50;64.30;;;;;;5004031;28;87480;-83
2022/01/02 06:48:59;;;;;;;2.13;1.73;;;20.50;64.30;;;;;;5005055;28;87858;-86
2022/01/02 06:51:25;;;;;;;2.55;2.00;;;20.50;64.30;;;;;;5004072;28;87351;-82
2022/01/02 06:53:51;;;;;;;3.22;2.25;;;20.50;64.30;;;;;;5005244;28;87721;-89
2022/01/02 06:56:16;;;;;;;1.88;1.60;;;20.50;64.20;;;;;;5001598;28;87848;-84
2022/01/02 06:58:42;;;;;;;6.70;1.95;;;20.50;64.10;;;;;;5006146;28;87050;-82
2022/01/02 07:01:08;;;;;;;2.55;1.92;;;20.50;63.90;;;;;;5004004;28;86671;-86
2022/01/02 07:03:34;;;;;;;2.25;1.95;;;20.50;64.00;;;;;;5000478;28;88175;-91
2022/01/02 07:06:00;;;;;;;3.25;2.20;;;20.50;63.80;;;;;;4997832;28;88367;-86
2022/01/02 07:08:28;;;;;;;2.95;1.88;;;20.50;64.00;;;;;;5002493;28;88987;-84
2022/01/02 07:10:54;;;;;;;2.90;2.13;;;20.60;63.90;;;;;;4998516;28;87617;-88
2022/01/02 07:13:20;;;;;;;2.30;1.83;;;20.60;64.30;;;;;;5001136;28;87371;-89
2022/01/02 07:15:51;;;;;;;2.47;1.85;;;20.70;64.50;;;;;;4999648;28;87671;-88
2022/01/02 07:18:18;;;;;;;7.13;2.38;;;20.70;64.70;;;;;;4998983;28;88374;-84
2022/01/02 07:20:44;;;;;;;4.03;2.10;;;20.70;64.40;;;;;;4996565;28;87937;-92
2022/01/02 07:23:10;;;;;;;3.30;1.83;;;20.80;64.30;;;;;;4999547;28;92694;-87
2022/01/02 07:25:35;;;;;;;2.28;1.70;;;20.80;64.50;;;;;;4998688;28;90320;-86
2022/01/02 07:28:01;;;;;;;2.28;1.55;;;20.80;64.50;;;;;;4998277;28;87009;-90
2022/01/02 07:30:26;;;;;;;3.15;2.25;;;20.80;64.40;;;;;;4999592;28;86920;-90
2022/01/02 07:32:52;;;;;;;3.60;1.90;;;20.80;64.40;;;;;;5000028;28;89148;-88
2022/01/02 07:35:18;;;;;;;2.28;1.98;;;20.90;64.50;;;;;;4999976;28;88789;-83
2022/01/02 07:37:43;;;;;;;2.15;1.60;;;20.90;64.80;;;;;;4998818;28;87007;-85
2022/01/02 07:40:10;;;;;;;3.72;1.70;;;20.90;64.60;;;;;;4997067;28;87298;-84
2022/01/02 07:42:36;;;;;;;4.07;2.00;;;20.90;64.50;;;;;;4980348;28;90675;-88
2022/01/02 07:45:02;;;;;;;6.03;1.90;;;20.90;64.40;;;;;;4997737;28;87725;-84
2022/01/02 07:47:28;;;;;;;3.58;1.70;;;20.90;64.40;;;;;;4997037;28;88001;-87
2022/01/02 07:49:54;;;;;;;3.08;1.85;;;20.90;64.40;;;;;;4999098;28;87120;-90
2022/01/02 07:52:19;;;;;;;2.15;1.73;;;20.90;64.20;;;;;;4997777;28;87521;-85
2022/01/02 07:54:45;;;;;;;6.18;1.80;;;21.00;64.10;;;;;;4997731;28;87411;-87
2022/01/02 07:57:11;;;;;;;3.35;1.80;;;20.90;64.00;;;;;;4996706;28;88870;-86
2022/01/02 07:59:36;;;;;;;3.30;1.77;;;21.00;64.10;;;;;;4996148;28;87376;-85
2022/01/02 08:02:02;;;;;;;6.60;1.98;;;21.00;63.90;;;;;;4997151;28;88154;-88
2022/01/02 08:04:28;;;;;;;4.13;1.83;;;21.00;64.00;;;;;;4995625;28;87792;-84
2022/01/02 08:06:56;;;;;;;4.28;1.58;;;21.00;63.60;;;;;;4995304;28;86925;-87
2022/01/02 08:09:21;;;;;;;3.58;1.98;;;20.90;63.60;;;;;;4998549;28;87643;-88
2022/01/02 08:11:47;;;;;;;4.47;2.25;;;20.90;63.50;;;;;;5000496;28;88153;-86
2022/01/02 08:14:13;;;;;;;3.03;2.10;;;20.90;63.50;;;;;;4997589;28;87505;-85
2022/01/02 08:16:39;;;;;;;4.18;2.22;;;20.90;63.50;;;;;;4979004;28;87744;-81
2022/01/02 08:19:06;;;;;;;5.85;2.50;;;20.90;63.40;;;;;;4996600;28;86956;-87
2022/01/02 08:21:32;;;;;;;10.05;2.80;;;20.90;63.50;;;;;;5001760;28;89108;-89
2022/01/02 08:23:58;;;;;;;25.83;6.13;;;20.90;64.10;;;;;;4991863;28;88810;-82
2022/01/02 08:26:25;;;;;;;20.27;4.40;;;20.90;63.60;;;;;;4999406;28;87522;-84
2022/01/02 08:28:52;;;;;;;24.20;5.15;;;20.90;63.80;;;;;;4978485;28;89513;-82
2022/01/02 08:31:19;;;;;;;21.88;6.05;;;20.90;63.80;;;;;;5003632;28;87097;-82
2022/01/02 08:33:45;;;;;;;23.45;5.28;;;20.90;64.00;;;;;;5004836;28;87246;-82
2022/01/02 08:36:10;;;;;;;43.60;8.88;;;20.90;64.50;;;;;;5002618;28;87473;-83
2022/01/02 08:38:36;;;;;;;54.90;11.07;;;20.90;63.80;;;;;;5002502;28;87345;-82
2022/01/02 08:41:02;;;;;;;43.85;10.73;;;21.00;63.40;;;;;;5004252;28;87766;-81
2022/01/02 08:43:28;;;;;;;160.82;37.65;;;21.00;62.90;;;;;;4987421;28;88140;-83
2022/01/02 08:45:54;;;;;;;368.98;88.22;;;21.00;62.00;;;;;;5004861;28;89007;-82
2022/01/02 08:48:22;;;;;;;488.73;111.28;;;20.90;60.70;;;;;;4927713;28;87442;-83
2022/01/02 08:50:49;;;;;;;387.67;89.78;;;21.00;60.00;;;;;;4947422;28;88213;-83
2022/01/02 08:53:19;;;;;;;314.58;72.82;;;20.90;59.60;;;;;;4981116;28;87901;-85
2022/01/02 08:55:45;;;;;;;256.70;58.58;;;21.00;59.40;;;;;;4983212;28;87531;-82
2022/01/02 08:58:10;;;;;;;230.98;50.40;;;20.90;58.80;;;;;;4979972;28;87503;-82
2022/01/02 09:00:36;;;;;;;206.18;47.03;;;21.00;58.30;;;;;;4980317;28;89005;-84
2022/01/02 09:03:02;;;;;;;197.70;48.40;;;21.00;58.90;;;;;;4962057;28;90312;-82
2022/01/02 09:05:28;;;;;;;167.95;39.40;;;20.90;59.40;;;;;;4996167;28;87707;-81
2022/01/02 09:07:54;;;;;;;146.15;36.15;;;20.90;58.80;;;;;;4994184;28;87772;-81
2022/01/02 09:10:21;;;;;;;144.38;34.45;;;20.90;58.20;;;;;;4994858;28;88532;-82
2022/01/02 09:12:47;;;;;;;118.68;30.20;;;21.00;57.90;;;;;;4994696;28;88874;-81
2022/01/02 09:15:13;;;;;;;113.57;29.20;;;21.00;57.60;;;;;;4997130;28;87878;-82
2022/01/02 09:17:38;;;;;;;112.45;28.70;;;21.00;57.50;;;;;;5011275;28;87370;-81
2022/01/02 09:20:31;;;;;;;112.47;27.98;;;20.90;57.20;;;;;;4986451;28;90930;-81
2022/01/02 09:22:57;;;;;;;104.53;26.02;;;20.90;56.90;;;;;;5008399;28;87439;-81
2022/01/02 09:25:23;;;;;;;87.28;24.33;;;20.90;57.00;;;;;;5007007;28;87555;-81
2022/01/02 09:27:51;;;;;;;94.43;23.27;;;20.90;57.10;;;;;;4972649;28;86967;-82
2022/01/02 09:30:17;;;;;;;84.80;21.98;;;20.90;56.70;;;;;;4968334;28;87343;-81
2022/01/02 09:32:43;;;;;;;72.65;20.60;;;20.90;56.50;;;;;;4994666;28;88099;-81
2022/01/02 09:35:10;;;;;;;70.70;21.33;;;20.90;56.10;;;;;;4997400;28;88197;-81
2022/01/02 09:37:37;;;;;;;67.13;19.08;;;20.90;56.10;;;;;;4996200;28;87380;-81
2022/01/02 09:40:05;;;;;;;67.82;19.00;;;20.90;56.20;;;;;;4992555;28;91763;-81
2022/01/02 09:42:34;;;;;;;55.67;17.73;;;20.90;56.30;;;;;;4991078;28;88741;-82
2022/01/02 09:44:59;;;;;;;67.63;19.25;;;20.90;56.60;;;;;;5010282;28;86874;-81
2022/01/02 09:47:26;;;;;;;119.60;28.60;;;20.90;57.30;;;;;;4998984;28;87821;-81
2022/01/02 09:49:53;;;;;;;284.80;66.93;;;20.90;56.80;;;;;;4995633;28;87793;-81
2022/01/02 09:52:19;;;;;;;673.10;172.70;;;21.00;56.60;;;;;;4996252;28;87449;-81
2022/01/02 09:54:45;;;;;;;615.67;158.93;;;21.00;56.40;;;;;;4992978;28;87155;-81
2022/01/02 09:57:11;;;;;;;555.38;144.18;;;21.00;56.50;;;;;;4996355;28;87632;-81
2022/01/02 09:59:37;;;;;;;487.77;125.93;;;21.00;56.40;;;;;;4995885;28;88352;-81
2022/01/02 10:02:13;;;;;;;400.95;103.10;;;20.90;56.30;;;;;;4997785;28;88379;-81
2022/01/02 10:04:41;;;;;;;354.45;93.82;;;21.00;56.40;;;;;;4996792;28;87146;-82
2022/01/02 10:07:26;;;;;;;304.58;78.53;;;21.00;56.30;;;;;;4998436;28;87492;-82
2022/01/02 10:09:53;;;;;;;281.00;70.85;;;21.00;56.20;;;;;;4992005;28;88444;-81
2022/01/02 10:12:28;;;;;;;315.08;79.65;;;21.00;56.30;;;;;;4996997;28;87280;-81
2022/01/02 10:15:06;;;;;;;254.25;69.38;;;21.00;56.60;;;;;;4993469;28;87745;-81
2022/01/02 10:17:51;;;;;;;232.13;58.47;;;21.00;56.70;;;;;;4997286;28;86832;-81
2022/01/02 10:20:20;;;;;;;219.88;58.67;;;21.00;56.40;;;;;;4998422;28;89019;-81
2022/01/02 10:23:23;;;;;;;188.98;51.63;;;21.00;56.40;;;;;;4993566;28;87692;-81
2022/01/02 10:26:03;;;;;;;175.70;45.70;;;21.00;56.30;;;;;;4994433;28;88487;-81
2022/01/02 10:28:42;;;;;;;175.52;44.50;;;21.00;55.90;;;;;;4991920;28;90138;-81
2022/01/02 10:31:10;;;;;;;151.45;41.10;;;21.00;55.60;;;;;;4996667;28;87813;-82
2022/01/02 10:33:52;;;;;;;175.15;46.90;;;21.00;55.60;;;;;;4994729;28;89415;-81
2022/01/02 10:36:24;;;;;;;176.40;49.85;;;21.00;55.90;;;;;;4998241;28;87745;-81
2022/01/02 10:39:09;;;;;;;157.23;44.38;;;21.00;56.00;;;;;;4994213;28;87605;-81
2022/01/02 10:41:44;;;;;;;138.13;38.88;;;21.00;55.70;;;;;;4994688;28;87678;-82
2022/01/02 10:44:38;;;;;;;117.97;35.00;;;21.00;55.70;;;;;;4993900;28;87385;-82
2022/01/02 10:47:11;;;;;;;114.03;31.40;;;20.90;55.30;;;;;;4990844;28;87638;-82
2022/01/02 10:49:49;;;;;;;111.65;32.90;;;20.90;55.10;;;;;;4992043;28;87019;-81
2022/01/02 10:52:35;;;;;;;103.78;29.90;;;20.90;55.40;;;;;;4993787;28;88335;-81
2022/01/02 10:55:13;;;;;;;121.15;36.42;;;20.90;55.30;;;;;;4993472;28;88830;-81
2022/01/02 10:57:42;;;;;;;104.50;33.33;;;20.90;55.60;;;;;;4994360;28;86930;-81
2022/01/02 11:00:15;;;;;;;97.50;30.45;;;20.90;55.60;;;;;;4995891;28;89364;-81
2022/01/02 11:02:41;;;;;;;92.40;27.83;;;21.00;55.60;;;;;;4991971;28;90553;-81
2022/01/02 11:05:12;;;;;;;75.75;25.42;;;20.90;55.60;;;;;;4995807;28;87712;-82
2022/01/02 11:07:44;;;;;;;90.82;27.95;;;20.90;55.50;;;;;;4993409;28;87022;-83
2022/01/02 11:10:11;;;;;;;90.75;30.15;;;20.90;55.70;;;;;;4990358;28;90441;-83
2022/01/02 11:12:39;;;;;;;87.47;28.70;;;20.90;56.50;;;;;;4992234;28;87855;-86
2022/01/02 11:15:10;;;;;;;91.60;29.17;;;21.00;57.50;;;;;;4992421;28;87467;-82
2022/01/02 11:17:36;;;;;;;84.75;26.75;;;21.00;58.40;;;;;;4992961;28;88047;-81
2022/01/02 11:20:07;;;;;;;87.20;29.35;;;21.00;58.80;;;;;;4992029;28;88201;-82
2022/01/02 11:23:00;;;;;;;78.78;27.27;;;21.00;59.30;;;;;;4989690;28;89464;-81
2022/01/02 11:25:36;;;;;;;67.25;24.50;;;21.00;59.60;;;;;;4994087;28;87872;-83
2022/01/02 11:28:05;;;;;;;73.30;25.13;;;21.00;60.00;;;;;;4996388;28;87040;-82
2022/01/02 11:30:31;;;;;;;;;;;21.00;59.90;;;;;;4993582;28;87515;-81
2022/01/02 11:33:04;;;;;;;56.35;18.70;;;21.00;58.90;;;;;;4995389;28;89118;-82
2022/01/02 11:35:33;;;;;;;74.32;21.45;;;21.00;58.40;;;;;;4993302;28;86818;-82
2022/01/02 11:38:03;;;;;;;58.85;19.42;;;21.00;58.40;;;;;;4993884;28;87506;-81
2022/01/02 11:40:58;;;;;;;57.40;18.27;;;21.00;57.90;;;;;;4994512;28;86899;-80
2022/01/02 11:43:57;;;;;;;53.38;17.02;;;21.00;57.70;;;;;;4994713;28;90696;-85
2022/01/02 11:46:25;;;;;;;;;;;21.00;57.80;;;;;;4949966;28;88847;-80
2022/01/02 11:49:16;;;;;;;44.75;15.45;;;21.00;57.30;;;;;;4936910;28;87691;-82
2022/01/02 11:51:48;;;;;;;57.53;19.10;;;21.00;58.10;;;;;;4949459;28;87996;-81
2022/01/02 11:54:46;;;;;;;44.63;14.93;;;21.00;58.60;;;;;;4936967;28;90649;-81
2022/01/02 11:57:15;;;;;;;44.67;14.47;;;21.00;58.10;;;;;;4953889;28;87573;-81
2022/01/02 11:59:42;;;;;;;37.45;12.18;;;21.00;58.40;;;;;;4936068;28;87662;-80
2022/01/02 12:02:35;;;;;;;37.28;12.27;;;21.00;58.10;;;;;;4951395;28;86625;-81
2022/01/02 12:05:13;;;;;;;31.25;11.60;;;21.00;57.90;;;;;;4940563;28;87460;-81
2022/01/02 12:07:53;;;;;;;33.72;11.45;;;21.00;57.80;;;;;;4923215;28;87391;-84
2022/01/02 12:10:22;;;;;;;30.33;11.02;;;20.90;57.60;;;;;;4948765;28;89047;-82
2022/01/02 12:12:59;;;;;;;35.53;12.05;;;20.90;57.70;;;;;;4949183;28;87454;-84
2022/01/02 12:15:31;;;;;;;34.38;12.35;;;20.90;58.60;;;;;;4953399;28;88070;-81
2022/01/02 12:18:24;;;;;;;31.90;11.57;;;20.90;58.80;;;;;;4988577;28;88083;-83
2022/01/02 12:20:50;;;;;;;33.58;11.70;;;21.00;59.00;;;;;;4998682;28;87935;-83
2022/01/02 12:23:34;;;;;;;24.42;9.60;;;21.00;59.80;;;;;;4994734;28;87558;-82
2022/01/02 12:26:34;;;;;;;28.98;9.55;;;21.00;57.70;;;;;;5003413;28;87745;-81
2022/01/02 12:29:10;;;;;;;29.17;10.77;;;21.00;67.80;;;;;;5001384;28;87417;-82
2022/01/02 12:31:42;;;;;;;27.35;10.98;;;21.00;73.70;;;;;;5004817;28;87606;-82
2022/01/02 12:34:22;;;;;;;29.42;10.77;;;21.00;75.30;;;;;;5001944;28;87163;-82
2022/01/02 12:36:50;;;;;;;29.30;10.93;;;21.00;72.20;;;;;;4999751;28;88990;-81
2022/01/02 12:39:30;;;;;;;23.20;9.52;;;21.00;69.60;;;;;;5001683;28;87558;-80
2022/01/02 12:42:06;;;;;;;22.75;8.73;;;21.00;65.90;;;;;;5003299;28;87098;-81
2022/01/02 12:44:54;;;;;;;23.67;8.05;;;21.00;64.70;;;;;;5001252;28;88598;-81
2022/01/02 12:47:20;;;;;;;20.50;8.65;;;21.00;63.30;;;;;;5003638;28;87739;-81
2022/01/02 12:49:47;;;;;;;24.85;9.23;;;21.00;63.40;;;;;;5003308;28;87697;-81
2022/01/02 12:52:15;;;;;;;22.23;8.73;;;21.00;63.80;;;;;;5000313;28;86838;-81
2022/01/02 12:54:44;;;;;;;22.05;9.48;;;21.00;64.80;;;;;;5000914;28;87446;-82
2022/01/02 12:57:12;;;;;;;;;;;21.10;65.00;;;;;;5003062;28;87303;-82
2022/01/02 12:59:43;;;;;;;21.30;7.97;;;21.00;65.60;;;;;;5003998;28;87403;-82
2022/01/02 13:02:12;;;;;;;25.00;9.13;;;21.10;66.10;;;;;;5001499;28;88000;-81